Time;durP1;ratioP1;P1;durP2;ratioP2;P2;SDS_P1;SDS_P2;PMS_P1;PMS_P2;Temp;Humidity;BMP_temperature;BMP_pressure;BME280_temperature;BME280_humidity;BME280_pressure;Samples;Min_cycle;Max_cycle;Signal;HPM_P1;HPM_P2
2021/04/23 00:01:11;;;;;;;30.50;14.90;;;12.30;98.10;;;;;;5061512;28;20496;-90
2021/04/23 00:03:42;;;;;;;19.20;13.85;;;12.30;98.10;;;;;;5059718;28;20432;-91
2021/04/23 00:06:18;;;;;;;25.88;13.57;;;12.30;98.10;;;;;;5051338;28;20051;-91
2021/04/23 00:08:51;;;;;;;19.52;13.13;;;12.30;98.10;;;;;;5067073;28;20045;-91
2021/04/23 00:11:24;;;;;;;18.20;13.38;;;12.30;98.00;;;;;;5070046;28;20044;-91
2021/04/23 00:13:52;;;;;;;24.05;14.73;;;12.30;97.90;;;;;;5067050;28;20040;-90
2021/04/23 00:16:19;;;;;;;22.52;12.85;;;12.30;97.90;;;;;;5034242;28;20041;-91
2021/04/23 00:18:51;;;;;;;24.40;13.32;;;12.30;97.80;;;;;;5052836;28;20548;-91
2021/04/23 00:21:22;;;;;;;19.63;12.02;;;12.30;97.70;;;;;;5060002;28;20466;-90
2021/04/23 00:23:55;;;;;;;20.90;12.55;;;12.30;97.60;;;;;;5073117;28;20048;-90
2021/04/23 00:26:21;;;;;;;16.70;11.93;;;12.30;97.60;;;;;;5070016;28;20059;-91
2021/04/23 00:28:51;;;;;;;20.25;11.80;;;12.30;97.40;;;;;;5068642;28;20045;-91
2021/04/23 00:31:18;;;;;;;17.58;11.70;;;12.30;97.30;;;;;;5061211;28;20051;-90
2021/04/23 00:33:45;;;;;;;14.63;11.48;;;12.30;97.10;;;;;;5045673;28;20049;-90
2021/04/23 00:36:19;;;;;;;22.92;11.88;;;12.40;96.90;;;;;;5039951;28;20041;-90
2021/04/23 00:38:46;;;;;;;20.33;11.60;;;12.40;96.70;;;;;;5069972;28;20048;-90
2021/04/23 00:41:20;;;;;;;20.88;10.88;;;12.40;96.40;;;;;;5049995;28;20101;-90
2021/04/23 00:43:58;;;;;;;16.90;10.88;;;12.40;96.30;;;;;;5048535;28;20037;-90
2021/04/23 00:46:30;;;;;;;16.65;10.73;;;12.40;96.10;;;;;;5039052;28;20049;-90
2021/04/23 00:48:59;;;;;;;15.27;10.10;;;12.40;95.90;;;;;;5052696;28;20051;-90
2021/04/23 00:52:03;;;;;;;15.98;10.50;;;12.50;95.70;;;;;;5038464;28;20123;-90
2021/04/23 00:54:30;;;;;;;13.77;9.20;;;12.50;95.40;;;;;;5055049;28;20032;-90
2021/04/23 00:56:57;;;;;;;14.70;8.95;;;12.50;95.30;;;;;;5068187;28;20040;-89
2021/04/23 00:59:24;;;;;;;14.43;8.93;;;12.50;95.00;;;;;;5052111;28;20054;-91
2021/04/23 01:02:00;;;;;;;14.82;9.50;;;12.50;94.80;;;;;;5047069;28;20049;-89
2021/04/23 01:04:28;;;;;;;13.93;8.52;;;12.60;94.60;;;;;;5042517;28;20040;-90
2021/04/23 01:06:56;;;;;;;12.93;7.97;;;12.60;94.40;;;;;;5037993;28;20475;-88
2021/04/23 01:09:28;;;;;;;13.40;8.80;;;12.60;94.20;;;;;;5051954;28;20476;-90
2021/04/23 01:11:58;;;;;;;12.23;8.07;;;12.70;94.10;;;;;;5041993;28;20390;-90
2021/04/23 01:14:27;;;;;;;13.48;7.90;;;12.70;93.90;;;;;;5040636;28;20103;-90
2021/04/23 01:16:54;;;;;;;13.65;8.38;;;12.70;93.60;;;;;;5039284;28;20051;-90
2021/04/23 01:19:25;;;;;;;17.67;7.65;;;12.70;93.40;;;;;;5039617;28;20139;-90
2021/04/23 01:21:52;;;;;;;12.88;7.55;;;12.70;93.30;;;;;;5069949;28;20054;-90
2021/04/23 01:24:20;;;;;;;12.75;8.05;;;12.80;93.10;;;;;;5052639;28;20530;-90
2021/04/23 01:26:49;;;;;;;14.07;7.93;;;12.70;93.00;;;;;;5054138;28;20060;-90
2021/04/23 01:29:18;;;;;;;12.18;7.85;;;12.80;92.80;;;;;;5043060;28;20165;-90
2021/04/23 01:31:50;;;;;;;15.25;7.40;;;12.80;92.70;;;;;;5043692;28;20045;-90
2021/04/23 01:34:24;;;;;;;13.35;7.47;;;12.80;92.50;;;;;;5049403;28;20048;-90
2021/04/23 01:36:53;;;;;;;11.15;7.13;;;12.70;92.20;;;;;;5058919;28;20041;-90
2021/04/23 01:39:27;;;;;;;11.90;6.60;;;12.70;92.10;;;;;;5056477;28;20478;-91
2021/04/23 01:41:56;;;;;;;11.70;7.50;;;12.70;92.10;;;;;;5067414;28;20128;-91
2021/04/23 01:44:27;;;;;;;11.65;6.88;;;12.70;91.90;;;;;;5058580;28;20136;-91
2021/04/23 01:46:54;;;;;;;10.48;6.85;;;12.70;91.90;;;;;;5065773;28;20048;-91
2021/04/23 01:49:30;;;;;;;12.18;7.40;;;12.70;91.70;;;;;;5050291;28;20498;-91
2021/04/23 01:52:12;;;;;;;12.70;6.38;;;12.70;91.70;;;;;;5071786;28;20493;-91
2021/04/23 01:54:40;;;;;;;9.25;6.30;;;12.70;91.50;;;;;;5057937;28;20082;-91
2021/04/23 01:57:12;;;;;;;12.07;6.97;;;12.70;91.50;;;;;;5059910;28;20052;-91
2021/04/23 01:59:40;;;;;;;10.82;6.22;;;12.70;91.30;;;;;;5078354;28;20048;-91
2021/04/23 02:02:07;;;;;;;8.60;5.77;;;12.70;91.30;;;;;;5058184;28;20101;-91
2021/04/23 02:04:41;;;;;;;10.38;6.35;;;12.70;91.20;;;;;;5056298;28;20041;-91
2021/04/23 02:07:09;;;;;;;11.30;6.47;;;12.70;91.00;;;;;;5058794;28;20075;-91
2021/04/23 02:09:36;;;;;;;10.40;6.30;;;12.70;91.00;;;;;;5058579;28;20055;-91
2021/04/23 02:12:07;;;;;;;9.57;6.03;;;12.60;90.80;;;;;;5067388;28;20040;-91
2021/04/23 02:14:33;;;;;;;13.77;6.30;;;12.70;90.70;;;;;;5072818;28;20051;-91
2021/04/23 02:17:08;;;;;;;9.98;6.20;;;12.60;90.60;;;;;;5078028;28;20072;-91
2021/04/23 02:19:35;;;;;;;11.68;6.28;;;12.60;90.60;;;;;;5059212;28;20045;-91
2021/04/23 02:22:03;;;;;;;10.93;5.90;;;12.60;90.40;;;;;;5059829;28;20040;-91
2021/04/23 02:24:30;;;;;;;10.52;5.85;;;12.60;90.30;;;;;;5055783;28;20047;-91
2021/04/23 02:26:57;;;;;;;11.50;5.60;;;12.60;90.20;;;;;;5059110;28;20036;-90
2021/04/23 02:29:24;;;;;;;10.60;5.95;;;12.60;90.00;;;;;;5059336;28;20104;-90
2021/04/23 02:31:53;;;;;;;10.27;6.05;;;12.60;90.00;;;;;;5060158;28;20045;-91
2021/04/23 02:34:21;;;;;;;;;;;12.60;90.20;;;;;;5059738;28;20048;-91
2021/04/23 02:36:48;;;;;;;9.98;5.70;;;12.50;89.30;;;;;;5057598;28;20007;-91
2021/04/23 02:39:19;;;;;;;9.80;5.60;;;12.50;89.80;;;;;;5073305;28;20509;-91
2021/04/23 02:41:49;;;;;;;8.98;5.43;;;12.50;89.70;;;;;;5059442;28;20040;-91
2021/04/23 02:44:17;;;;;;;11.68;5.57;;;12.40;89.60;;;;;;5059332;28;20056;-91
2021/04/23 02:46:44;;;;;;;10.10;5.57;;;12.40;89.60;;;;;;5062452;28;20044;-91
2021/04/23 02:49:12;;;;;;;10.07;5.50;;;12.40;89.60;;;;;;5067948;28;20075;-92
2021/04/23 02:51:43;;;;;;;8.35;5.35;;;12.40;89.50;;;;;;5074057;28;20118;-91
2021/04/23 02:54:10;;;;;;;10.77;5.90;;;12.40;89.30;;;;;;5055114;28;20470;-91
2021/04/23 02:56:38;;;;;;;11.27;5.82;;;12.30;89.40;;;;;;5069203;28;20093;-91
2021/04/23 02:59:06;;;;;;;11.63;5.57;;;12.20;89.20;;;;;;5059428;28;20074;-91
2021/04/23 03:01:42;;;;;;;12.70;5.60;;;12.20;89.20;;;;;;5061160;28;20126;-90
2021/04/23 03:04:08;;;;;;;9.52;5.10;;;12.20;89.00;;;;;;5070791;28;20047;-91
2021/04/23 03:06:36;;;;;;;7.53;4.88;;;12.10;89.10;;;;;;5055593;28;20036;-90
2021/04/23 03:09:07;;;;;;;8.30;4.57;;;12.10;88.80;;;;;;5070195;28;20043;-90
2021/04/23 03:11:36;;;;;;;8.82;5.13;;;12.10;88.60;;;;;;5060401;28;20114;-91
2021/04/23 03:14:03;;;;;;;10.75;4.68;;;12.10;88.20;;;;;;5063695;28;20070;-91
2021/04/23 03:16:31;;;;;;;12.40;4.93;;;12.10;88.10;;;;;;5067123;28;20040;-91
2021/04/23 03:18:58;;;;;;;8.32;5.07;;;12.10;87.90;;;;;;5058468;28;20044;-91
2021/04/23 03:21:27;;;;;;;13.43;5.20;;;12.10;88.00;;;;;;5055340;28;20080;-90
2021/04/23 03:23:55;;;;;;;9.60;5.38;;;12.10;87.80;;;;;;5059336;28;20485;-91
2021/04/23 03:26:24;;;;;;;;;;;12.10;88.00;;;;;;5067874;28;20074;-90
2021/04/23 03:28:51;;;;;;;12.48;5.32;;;12.10;87.30;;;;;;5074860;28;19920;-90
2021/04/23 03:31:19;;;;;;;8.05;5.47;;;12.10;87.50;;;;;;5072256;28;20149;-91
2021/04/23 03:33:46;;;;;;;9.50;5.05;;;12.00;87.70;;;;;;5079676;28;20047;-91
2021/04/23 03:36:13;;;;;;;8.18;5.47;;;12.00;87.50;;;;;;5057065;28;20052;-91
2021/04/23 03:38:43;;;;;;;10.65;4.90;;;12.00;87.50;;;;;;5042953;28;20040;-91
2021/04/23 03:41:19;;;;;;;8.32;4.97;;;11.90;87.40;;;;;;5041885;28;20041;-90
2021/04/23 03:43:45;;;;;;;10.02;5.07;;;11.90;87.50;;;;;;5043943;28;20091;-91
2021/04/23 03:46:13;;;;;;;7.55;5.10;;;11.90;87.30;;;;;;5028659;28;20041;-90
2021/04/23 03:48:42;;;;;;;11.07;5.03;;;11.80;87.20;;;;;;5055505;28;20506;-91
2021/04/23 03:51:13;;;;;;;12.57;5.38;;;11.80;87.30;;;;;;5052865;28;20072;-91
2021/04/23 03:53:41;;;;;;;11.20;5.20;;;11.80;87.20;;;;;;5042212;28;20084;-91
2021/04/23 03:56:12;;;;;;;8.40;4.90;;;11.80;86.80;;;;;;5046692;28;20044;-91
2021/04/23 03:58:41;;;;;;;11.18;4.70;;;11.80;87.00;;;;;;5052517;28;20052;-91
2021/04/23 04:01:11;;;;;;;9.30;5.18;;;11.80;86.80;;;;;;5050996;28;20043;-91
2021/04/23 04:03:38;;;;;;;10.82;5.03;;;11.80;86.90;;;;;;5040650;28;20068;-91
2021/04/23 04:06:06;;;;;;;8.07;4.43;;;11.80;86.50;;;;;;5052664;28;20041;-91
2021/04/23 04:08:33;;;;;;;10.30;5.00;;;11.80;86.30;;;;;;5051615;28;20044;-92
2021/04/23 04:11:02;;;;;;;8.63;4.47;;;11.80;85.90;;;;;;5044569;28;20059;-91
2021/04/23 04:13:29;;;;;;;10.20;4.85;;;11.80;85.90;;;;;;5041833;28;20037;-91
2021/04/23 04:15:55;;;;;;;10.07;5.20;;;11.80;85.90;;;;;;5052493;28;20051;-91
2021/04/23 04:18:24;;;;;;;12.07;4.65;;;11.80;85.60;;;;;;5053014;28;20070;-90
2021/04/23 04:20:53;;;;;;;6.43;4.25;;;11.80;85.60;;;;;;5053040;28;20036;-91
2021/04/23 04:23:21;;;;;;;11.40;4.95;;;11.90;86.10;;;;;;5050167;28;20052;-90
2021/04/23 04:25:50;;;;;;;8.52;4.55;;;11.80;85.70;;;;;;5049945;28;20087;-91
2021/04/23 04:28:20;;;;;;;6.95;4.20;;;11.80;85.40;;;;;;5049525;28;20053;-91
2021/04/23 04:30:48;;;;;;;9.52;4.75;;;11.80;85.20;;;;;;5039790;28;20073;-91
2021/04/23 04:33:34;;;;;;;10.77;4.38;;;11.80;85.10;;;;;;5031966;28;20036;-91
2021/04/23 04:36:01;;;;;;;12.20;5.00;;;11.70;85.00;;;;;;5067995;28;20543;-91
2021/04/23 04:38:28;;;;;;;8.30;4.18;;;11.70;85.20;;;;;;5070305;28;20132;-91
2021/04/23 04:40:55;;;;;;;9.00;4.72;;;11.70;85.00;;;;;;5057235;28;20470;-91
2021/04/23 04:43:22;;;;;;;8.93;4.72;;;11.70;84.70;;;;;;5077711;28;20048;-91
2021/04/23 04:45:49;;;;;;;8.10;4.85;;;11.70;84.60;;;;;;5084791;28;20044;-89
2021/04/23 04:48:17;;;;;;;10.70;4.32;;;11.70;84.60;;;;;;5081451;28;20040;-93
2021/04/23 04:50:54;;;;;;;10.57;4.18;;;11.60;84.60;;;;;;5064469;28;20049;-94
2021/04/23 04:53:22;;;;;;;9.25;4.75;;;11.60;84.80;;;;;;5060818;28;20064;-91
2021/04/23 04:55:52;;;;;;;8.23;4.22;;;11.60;84.60;;;;;;5064535;28;20366;-91
2021/04/23 04:58:21;;;;;;;10.10;4.50;;;11.60;84.30;;;;;;5071365;28;20516;-91
2021/04/23 05:00:51;;;;;;;12.00;5.00;;;11.60;84.40;;;;;;5059836;28;20044;-90
2021/04/23 05:03:21;;;;;;;11.10;4.45;;;11.60;84.20;;;;;;5076225;28;20075;-91
2021/04/23 05:05:49;;;;;;;7.32;4.22;;;11.50;84.00;;;;;;5076247;28;20377;-91
2021/04/23 05:08:16;;;;;;;11.32;4.85;;;11.50;84.10;;;;;;5069499;28;20131;-91
2021/04/23 05:10:43;;;;;;;8.48;5.10;;;11.50;84.00;;;;;;5069724;28;20048;-93
2021/04/23 05:13:11;;;;;;;7.13;3.83;;;11.50;83.90;;;;;;5057889;28;20067;-90
2021/04/23 05:15:38;;;;;;;11.48;4.35;;;11.50;83.70;;;;;;5074314;28;20570;-90
2021/04/23 05:18:05;;;;;;;6.68;4.22;;;11.50;83.90;;;;;;5072068;28;20036;-90
2021/04/23 05:20:33;;;;;;;7.93;4.25;;;11.50;83.90;;;;;;5070810;28;20044;-90
2021/04/23 05:23:00;;;;;;;9.17;4.27;;;11.40;83.80;;;;;;5068805;28;20105;-91
2021/04/23 05:25:27;;;;;;;10.57;4.68;;;11.40;83.90;;;;;;5069559;28;20377;-90
2021/04/23 05:27:55;;;;;;;10.65;4.25;;;11.40;83.90;;;;;;5059840;28;20490;-90
2021/04/23 05:30:28;;;;;;;9.77;4.75;;;11.40;83.80;;;;;;5057579;28;20560;-90
2021/04/23 05:32:55;;;;;;;8.00;4.60;;;11.40;84.00;;;;;;5050373;28;20041;-91
2021/04/23 05:35:27;;;;;;;8.60;3.92;;;11.50;83.90;;;;;;5067482;28;20072;-91
2021/04/23 05:37:55;;;;;;;;;;;11.40;83.90;;;;;;5070121;28;20500;-90
2021/04/23 05:40:33;;;;;;;8.18;4.20;;;11.40;83.60;;;;;;5068722;28;20243;-90
2021/04/23 05:43:00;;;;;;;9.88;4.32;;;11.40;83.80;;;;;;5070003;28;20058;-90
2021/04/23 05:45:33;;;;;;;12.57;4.65;;;11.40;83.80;;;;;;5073265;28;20067;-90
2021/04/23 05:47:59;;;;;;;14.30;4.22;;;11.40;83.70;;;;;;5071253;28;20063;-90
2021/04/23 05:50:26;;;;;;;6.88;3.90;;;11.50;83.60;;;;;;5052550;28;20057;-90
2021/04/23 05:52:55;;;;;;;9.60;3.87;;;11.50;83.50;;;;;;5065523;28;20119;-90
2021/04/23 05:55:25;;;;;;;14.00;4.38;;;11.60;83.60;;;;;;5069262;28;20295;-90
2021/04/23 05:57:56;;;;;;;7.25;3.63;;;11.60;83.50;;;;;;5043952;28;20052;-90
2021/04/23 06:00:28;;;;;;;11.80;4.40;;;11.70;83.40;;;;;;5064769;28;20048;-90
2021/04/23 06:03:01;;;;;;;10.68;4.03;;;11.70;83.20;;;;;;5068047;28;20075;-90
2021/04/23 06:05:28;;;;;;;7.35;4.15;;;11.80;83.20;;;;;;5057468;28;20049;-91
2021/04/23 06:08:01;;;;;;;11.00;3.95;;;11.80;82.90;;;;;;5051980;28;20054;-90
2021/04/23 06:10:28;;;;;;;9.45;4.15;;;11.90;83.00;;;;;;5062286;28;20044;-91
2021/04/23 06:12:57;;;;;;;6.65;3.85;;;11.90;82.90;;;;;;5071118;28;20127;-91
2021/04/23 06:15:25;;;;;;;12.93;4.38;;;12.00;82.70;;;;;;5071003;28;20062;-91
2021/04/23 06:17:54;;;;;;;9.23;3.95;;;12.00;82.50;;;;;;5071568;28;20131;-91
2021/04/23 06:20:28;;;;;;;8.80;3.60;;;12.10;82.50;;;;;;5068424;28;20059;-91
2021/04/23 06:22:56;;;;;;;8.48;3.60;;;12.20;82.60;;;;;;5072274;28;20409;-90
2021/04/23 06:25:23;;;;;;;10.73;3.80;;;12.20;82.80;;;;;;5065649;28;20080;-93
2021/04/23 06:27:52;;;;;;;11.38;3.58;;;12.30;82.70;;;;;;5057880;28;20439;-92
2021/04/23 06:30:37;;;;;;;10.68;4.03;;;12.30;82.50;;;;;;5071455;28;20044;-91
2021/04/23 06:33:18;;;;;;;6.35;3.03;;;12.50;81.50;;;;;;5054803;28;20068;-90
2021/04/23 06:35:47;;;;;;;8.20;3.83;;;12.50;81.90;;;;;;5058880;28;20044;-90
2021/04/23 06:38:14;;;;;;;10.02;3.70;;;12.60;82.00;;;;;;5054505;28;20044;-91
2021/04/23 06:40:41;;;;;;;7.78;3.50;;;12.60;81.80;;;;;;5066641;28;20036;-91
2021/04/23 06:43:08;;;;;;;7.72;3.67;;;12.70;81.80;;;;;;5054131;28;20124;-91
2021/04/23 06:45:35;;;;;;;8.02;3.30;;;12.80;81.90;;;;;;5055188;28;20036;-90
2021/04/23 06:48:02;;;;;;;7.75;3.60;;;12.90;81.80;;;;;;5070908;28;20122;-91
2021/04/23 06:50:30;;;;;;;8.40;3.65;;;13.00;81.50;;;;;;5059627;28;20048;-90
2021/04/23 06:52:58;;;;;;;10.10;3.45;;;13.10;80.90;;;;;;5060320;28;20055;-91
2021/04/23 06:55:24;;;;;;;7.80;3.40;;;13.20;80.80;;;;;;5058678;28;20048;-90
2021/04/23 06:57:52;;;;;;;8.43;3.78;;;13.30;80.90;;;;;;5057304;28;20118;-91
2021/04/23 07:00:25;;;;;;;12.25;3.22;;;13.40;80.50;;;;;;5069997;28;20044;-91
2021/04/23 07:02:52;;;;;;;6.47;3.20;;;13.50;80.50;;;;;;5073627;28;20044;-91
2021/04/23 07:05:22;;;;;;;7.80;3.45;;;13.60;80.30;;;;;;5069256;28;20442;-91
2021/04/23 07:07:51;;;;;;;7.88;3.55;;;13.80;80.00;;;;;;5072261;28;20044;-91
2021/04/23 07:10:22;;;;;;;;;;;13.90;79.70;;;;;;5072128;28;20041;-92
2021/04/23 07:12:49;;;;;;;9.13;3.47;;;14.00;79.00;;;;;;5075786;28;19974;-92
2021/04/23 07:15:19;;;;;;;9.25;3.40;;;14.10;79.20;;;;;;5051467;28;20048;-91
2021/04/23 07:17:47;;;;;;;8.23;3.22;;;14.20;78.70;;;;;;5067380;28;20043;-90
2021/04/23 07:20:33;;;;;;;7.40;3.30;;;14.30;78.70;;;;;;5079340;28;20418;-91
2021/04/23 07:23:03;;;;;;;7.13;3.33;;;14.50;78.80;;;;;;5055867;28;20041;-90
2021/04/23 07:25:30;;;;;;;6.78;3.33;;;14.60;78.70;;;;;;5054977;28;20056;-91
2021/04/23 07:27:59;;;;;;;6.63;3.25;;;14.70;78.20;;;;;;5075310;28;20064;-91
2021/04/23 07:30:29;;;;;;;6.72;3.03;;;14.90;78.30;;;;;;5059631;28;20051;-91
2021/04/23 07:32:58;;;;;;;8.63;2.97;;;15.00;78.10;;;;;;5062613;28;20114;-92
2021/04/23 07:35:26;;;;;;;9.68;3.30;;;15.20;77.90;;;;;;5062340;28;20545;-92
2021/04/23 07:37:55;;;;;;;9.27;3.13;;;15.30;77.60;;;;;;5071340;28;20068;-91
2021/04/23 07:40:22;;;;;;;10.13;3.53;;;15.50;77.50;;;;;;5071269;28;20064;-92
2021/04/23 07:42:51;;;;;;;7.22;3.53;;;15.60;77.30;;;;;;5061189;28;20079;-92
2021/04/23 07:45:20;;;;;;;8.67;3.70;;;15.70;77.40;;;;;;5052044;28;20048;-91
2021/04/23 07:47:49;;;;;;;6.38;3.08;;;15.80;77.00;;;;;;5062396;28;20062;-92
2021/04/23 07:50:19;;;;;;;9.82;3.35;;;16.00;76.90;;;;;;5048285;28;20040;-91
2021/04/23 07:52:46;;;;;;;6.53;3.03;;;16.10;76.70;;;;;;5071830;28;20381;-92
2021/04/23 07:55:16;;;;;;;6.93;2.83;;;16.20;76.40;;;;;;5072031;28;20044;-91
2021/04/23 07:58:29;;;;;;;4.82;2.97;;;16.20;76.10;;;;;;5040322;28;20041;-96
2021/04/23 08:01:02;;;;;;;7.95;3.13;;;16.30;75.40;;;;;;5045536;28;20041;-95
2021/04/23 08:03:46;;;;;;;5.82;3.00;;;16.40;76.50;;;;;;5028073;28;20052;-92
2021/04/23 08:06:13;;;;;;;;;;;16.50;76.60;;;;;;5061351;28;20114;-92
2021/04/23 08:08:51;;;;;;;10.00;3.60;;;16.70;75.70;;;;;;5066415;28;19963;-91
2021/04/23 08:11:18;;;;;;;5.18;2.83;;;16.80;76.30;;;;;;5046773;28;20037;-91
2021/04/23 08:13:49;;;;;;;7.90;3.27;;;16.80;75.90;;;;;;5059304;28;20045;-91
2021/04/23 08:16:17;;;;;;;10.82;3.40;;;16.90;75.70;;;;;;5052193;28;20297;-91
2021/04/23 08:18:50;;;;;;;6.75;3.42;;;17.00;76.00;;;;;;5045227;28;20045;-90
2021/04/23 08:21:19;;;;;;;8.13;3.22;;;17.10;75.70;;;;;;5066206;28;20436;-91
2021/04/23 08:23:47;;;;;;;7.00;3.10;;;17.20;75.60;;;;;;5064264;28;20588;-91
2021/04/23 08:26:15;;;;;;;9.32;3.60;;;17.30;75.40;;;;;;5060367;28;20052;-91
2021/04/23 08:28:41;;;;;;;8.07;3.17;;;17.40;75.40;;;;;;5054942;28;20055;-91
2021/04/23 08:31:08;;;;;;;7.45;3.50;;;17.50;75.00;;;;;;5055108;28;20059;-92
2021/04/23 08:33:37;;;;;;;6.35;3.17;;;17.50;75.10;;;;;;5053408;28;20117;-92
2021/04/23 08:36:04;;;;;;;;;;;17.60;75.50;;;;;;5086415;28;20051;-91
2021/04/23 08:38:31;;;;;;;7.05;3.10;;;17.70;74.50;;;;;;5060479;28;19920;-92
2021/04/23 08:40:58;;;;;;;8.13;3.25;;;17.80;75.20;;;;;;5057880;28;20481;-91
2021/04/23 08:43:36;;;;;;;5.38;3.20;;;17.90;75.20;;;;;;5066363;28;20048;-92
2021/04/23 08:46:06;;;;;;;8.13;3.30;;;18.00;74.80;;;;;;5071279;28;20048;-91
2021/04/23 08:48:33;;;;;;;7.47;3.42;;;18.00;74.50;;;;;;5047548;28;20048;-92
2021/04/23 08:51:00;;;;;;;7.88;3.05;;;18.10;75.00;;;;;;5067488;28;20127;-91
2021/04/23 08:53:28;;;;;;;4.70;3.20;;;18.20;74.90;;;;;;5061989;28;20044;-91
2021/04/23 08:55:56;;;;;;;8.63;3.50;;;18.20;74.50;;;;;;5059619;28;20036;-92
2021/04/23 08:58:26;;;;;;;7.10;3.40;;;18.30;74.80;;;;;;5057598;28;20045;-91
2021/04/23 09:00:53;;;;;;;9.18;3.13;;;18.30;74.70;;;;;;5060868;28;20102;-91
2021/04/23 09:03:22;;;;;;;4.82;3.13;;;18.40;74.80;;;;;;5069781;28;20052;-91
2021/04/23 09:06:20;;;;;;;6.38;3.22;;;18.40;74.70;;;;;;5049502;28;20047;-91
2021/04/23 09:09:03;;;;;;;4.65;2.85;;;18.50;74.10;;;;;;5053257;28;20092;-91
2021/04/23 09:11:40;;;;;;;5.70;3.03;;;18.50;74.50;;;;;;5060675;28;20043;-92
2021/04/23 09:14:24;;;;;;;7.65;3.17;;;18.60;74.50;;;;;;5053070;28;20041;-90
2021/04/23 09:16:59;;;;;;;7.18;3.38;;;18.60;73.70;;;;;;5064799;28;20127;-91
2021/04/23 09:19:30;;;;;;;7.05;3.10;;;18.70;73.60;;;;;;5044685;28;20047;-90
2021/04/23 09:22:05;;;;;;;7.28;3.75;;;18.80;74.30;;;;;;5049746;28;20049;-92
2021/04/23 09:24:44;;;;;;;7.72;3.30;;;18.80;74.30;;;;;;5051462;28;20041;-90
2021/04/23 09:27:17;;;;;;;4.55;2.78;;;18.90;74.50;;;;;;5060179;28;20052;-90
2021/04/23 09:29:50;;;;;;;5.45;3.08;;;19.00;74.80;;;;;;5056207;28;20049;-90
2021/04/23 09:32:20;;;;;;;6.35;3.03;;;19.10;74.70;;;;;;5053950;28;20131;-91
2021/04/23 09:34:52;;;;;;;5.05;3.13;;;19.20;74.80;;;;;;5050979;28;20048;-91
2021/04/23 09:37:20;;;;;;;9.85;3.47;;;19.30;74.80;;;;;;5050013;28;20491;-91
2021/04/23 09:39:50;;;;;;;4.55;3.08;;;19.40;74.90;;;;;;5058734;28;20064;-91
2021/04/23 09:42:17;;;;;;;7.35;3.30;;;19.50;75.00;;;;;;5054117;28;20040;-91
2021/04/23 09:44:49;;;;;;;8.40;2.92;;;19.60;74.80;;;;;;5061575;28;20375;-91
2021/04/23 09:47:19;;;;;;;7.00;3.03;;;19.60;75.00;;;;;;5058258;28;20082;-90
2021/04/23 09:49:53;;;;;;;5.63;2.92;;;19.70;74.00;;;;;;5062673;28;20043;-90
2021/04/23 09:52:23;;;;;;;4.82;2.85;;;19.70;74.20;;;;;;5061549;28;20054;-92
2021/04/23 09:55:09;;;;;;;6.63;2.92;;;19.70;73.90;;;;;;5067544;28;20563;-92
2021/04/23 09:57:40;;;;;;;7.13;3.13;;;19.70;74.10;;;;;;5066148;28;20119;-92
2021/04/23 10:00:14;;;;;;;7.80;2.92;;;19.80;74.50;;;;;;5056006;28;20467;-92
2021/04/23 10:03:01;;;;;;;;;;;;;;;;;;;;;
2021/04/23 10:05:56;;;;;;;6.47;2.83;;;20.00;74.20;;;;;;5084415;28;20047;-92
2021/04/23 10:08:45;;;;;;;4.93;2.70;;;20.00;74.80;;;;;;5053637;28;20515;-92
2021/04/23 10:11:16;;;;;;;4.63;2.72;;;20.10;74.70;;;;;;5065011;28;20041;-92
2021/04/23 10:13:44;;;;;;;7.15;3.05;;;20.10;74.40;;;;;;5062874;28;20036;-92
2021/04/23 10:16:14;;;;;;;5.65;2.67;;;20.20;74.50;;;;;;5056496;28;20098;-92
2021/04/23 10:18:41;;;;;;;6.43;2.97;;;20.20;75.00;;;;;;5057613;28;20484;-92
2021/04/23 10:21:08;;;;;;;8.77;2.97;;;20.40;75.10;;;;;;5057819;28;20041;-91
2021/04/23 10:23:35;;;;;;;6.05;2.90;;;20.40;74.40;;;;;;5063198;28;20040;-92
2021/04/23 10:26:02;;;;;;;5.55;2.70;;;20.40;74.00;;;;;;5062048;28;20058;-92
2021/04/23 10:28:29;;;;;;;4.68;2.70;;;20.50;74.00;;;;;;5057151;28;20040;-92
2021/04/23 10:30:56;;;;;;;8.90;3.15;;;20.50;73.90;;;;;;5056610;28;20086;-92
2021/04/23 10:33:27;;;;;;;6.45;2.50;;;20.60;73.90;;;;;;5054800;28;20051;-92
2021/04/23 10:35:59;;;;;;;4.47;2.40;;;20.60;73.80;;;;;;5047694;28;20477;-93
2021/04/23 10:38:39;;;;;;;3.55;2.53;;;20.70;74.20;;;;;;5037197;28;20467;-91
2021/04/23 10:41:10;;;;;;;6.22;2.90;;;20.80;74.00;;;;;;5059202;28;20483;-92
2021/04/23 10:43:53;;;;;;;4.47;2.83;;;20.80;73.60;;;;;;5063256;28;20040;-90
2021/04/23 10:46:23;;;;;;;5.75;2.63;;;20.90;73.80;;;;;;5057861;28;20040;-90
2021/04/23 10:48:50;;;;;;;4.88;2.53;;;21.00;74.20;;;;;;5065066;28;20120;-90
2021/04/23 10:51:19;;;;;;;7.15;2.70;;;21.00;73.50;;;;;;5057359;28;20040;-91
2021/04/23 10:53:49;;;;;;;6.68;3.35;;;21.00;73.20;;;;;;5057977;28;20036;-91
2021/04/23 10:56:28;;;;;;;4.25;2.78;;;21.10;73.40;;;;;;5055168;28;20117;-92
2021/04/23 10:59:06;;;;;;;7.93;2.45;;;21.10;73.50;;;;;;5049128;28;20051;-93
2021/04/23 11:01:49;;;;;;;5.85;2.58;;;21.10;73.60;;;;;;5037940;28;20048;-94
2021/04/23 11:04:19;;;;;;;5.43;2.97;;;21.20;73.60;;;;;;5053738;28;20367;-91
2021/04/23 11:06:54;;;;;;;6.50;2.83;;;21.20;73.90;;;;;;5066811;28;20047;-92
2021/04/23 11:09:31;;;;;;;4.57;2.67;;;21.30;73.30;;;;;;5038354;28;20046;-90
2021/04/23 11:12:13;;;;;;;6.63;2.80;;;21.30;73.40;;;;;;5057400;28;20489;-90
2021/04/23 11:14:51;;;;;;;;;;;;;;;;;;;;;
2021/04/23 11:17:24;;;;;;;4.90;2.58;;;21.40;72.90;;;;;;5067681;28;20048;-90
2021/04/23 11:19:55;;;;;;;6.80;2.55;;;21.30;72.40;;;;;;5044654;28;20036;-88
2021/04/23 11:22:50;;;;;;;4.75;2.97;;;21.30;72.80;;;;;;5060011;28;20037;-88
2021/04/23 11:25:20;;;;;;;8.55;5.03;;;21.30;73.30;;;;;;5058232;28;20389;-90
2021/04/23 11:28:00;;;;;;;5.72;3.03;;;21.40;73.10;;;;;;5055860;28;20048;-90
2021/04/23 11:30:30;;;;;;;5.47;2.70;;;21.40;73.20;;;;;;5069280;28;20052;-89
2021/04/23 11:32:57;;;;;;;4.97;2.45;;;21.40;73.30;;;;;;5069284;28;20059;-90
2021/04/23 11:35:25;;;;;;;3.58;2.13;;;21.40;73.40;;;;;;5065799;28;20048;-89
2021/04/23 11:37:57;;;;;;;5.30;2.50;;;21.40;73.60;;;;;;5065580;28;20040;-90
2021/04/23 11:40:30;;;;;;;9.85;2.40;;;21.50;73.60;;;;;;5068592;28;20087;-90
2021/04/23 11:43:00;;;;;;;7.97;2.55;;;21.40;73.50;;;;;;5071978;28;20123;-89
2021/04/23 11:45:26;;;;;;;6.47;2.67;;;21.40;74.10;;;;;;5068583;28;20043;-90
2021/04/23 11:48:09;;;;;;;5.10;2.50;;;21.40;74.50;;;;;;5070082;28;20044;-90
2021/04/23 11:51:03;;;;;;;8.82;2.72;;;21.50;74.30;;;;;;5067326;28;20397;-90
2021/04/23 11:53:29;;;;;;;8.25;2.58;;;21.60;74.00;;;;;;5069282;28;20093;-90
2021/04/23 11:55:59;;;;;;;4.20;2.40;;;21.50;74.00;;;;;;5069314;28;20138;-90
2021/04/23 11:58:25;;;;;;;5.28;2.28;;;21.50;73.80;;;;;;5069633;28;20070;-90
2021/04/23 12:00:56;;;;;;;3.38;2.22;;;21.60;74.10;;;;;;5072071;28;20055;-89
2021/04/23 12:03:23;;;;;;;5.53;2.50;;;21.60;74.50;;;;;;5055447;28;20048;-90
2021/04/23 12:05:55;;;;;;;6.10;2.55;;;21.60;74.10;;;;;;5065030;28;20056;-90
2021/04/23 12:08:35;;;;;;;6.68;2.45;;;21.60;73.90;;;;;;5065010;28;20249;-91
2021/04/23 12:11:06;;;;;;;5.05;2.40;;;21.60;72.80;;;;;;5083146;28;20071;-91
2021/04/23 12:13:35;;;;;;;4.57;2.33;;;21.40;72.80;;;;;;5070882;28;20044;-91
2021/04/23 12:16:05;;;;;;;;;;;21.40;73.40;;;;;;5072202;28;20047;-92
2021/04/23 12:18:45;;;;;;;5.88;2.58;;;21.40;73.90;;;;;;5056039;28;19950;-93
2021/04/23 12:21:13;;;;;;;3.83;2.13;;;21.40;74.30;;;;;;5068686;28;20444;-92
2021/04/23 12:23:45;;;;;;;5.13;1.90;;;21.40;74.50;;;;;;5055364;28;20045;-91
2021/04/23 12:26:14;;;;;;;7.38;2.22;;;21.40;73.10;;;;;;5054608;28;20055;-91
2021/04/23 12:28:47;;;;;;;4.80;1.50;;;21.40;73.10;;;;;;5068388;28;20051;-92
2021/04/23 12:31:23;;;;;;;2.15;1.00;;;21.40;73.40;;;;;;5063228;28;20677;-91
2021/04/23 12:34:08;;;;;;;2.05;1.20;;;21.50;71.70;;;;;;5057636;28;20041;-91
2021/04/23 12:36:38;;;;;;;6.25;1.42;;;21.50;69.90;;;;;;5076502;28;20048;-91
2021/04/23 12:39:25;;;;;;;3.78;1.42;;;21.50;70.20;;;;;;5071463;28;20036;-89
2021/04/23 12:42:00;;;;;;;2.10;1.20;;;21.50;70.10;;;;;;5060458;28;20045;-91
2021/04/23 12:44:34;;;;;;;7.10;1.70;;;21.40;69.50;;;;;;5060158;28;20039;-92
2021/04/23 12:47:11;;;;;;;2.55;1.60;;;21.40;69.70;;;;;;5056940;28;20048;-92
2021/04/23 12:49:43;;;;;;;4.25;1.40;;;21.30;67.80;;;;;;5060412;28;20079;-91
2021/04/23 12:52:14;;;;;;;1.85;1.17;;;21.30;68.90;;;;;;5057338;28;20055;-90
2021/04/23 12:54:48;;;;;;;3.38;1.25;;;21.30;69.10;;;;;;5049514;28;20070;-89
2021/04/23 12:57:26;;;;;;;3.03;1.30;;;21.30;69.20;;;;;;5044780;28;20432;-90
2021/04/23 13:00:09;;;;;;;3.80;1.55;;;21.30;68.90;;;;;;5045991;28;20107;-90
2021/04/23 13:02:46;;;;;;;3.13;1.33;;;21.30;67.90;;;;;;5067509;28;20040;-90
2021/04/23 13:05:18;;;;;;;3.17;1.13;;;21.30;69.20;;;;;;5049950;28;20486;-91
2021/04/23 13:07:46;;;;;;;1.98;1.02;;;21.40;69.10;;;;;;5061480;28;20063;-90